Lincolns New Salem, Illinois
Current Conditions -  °F | °C
As of 12:52 PM on Friday 28 Nov 2014 (Local Time) from KSPI Reporting Station
Clear Clear  
Wind Chill: 28°   Ceiling: Unl
Heat Index: 38°   Visibility: 10mi
Dew Point: 30°   Wind: 21mph
Humidity: 73%   Direction: 170°S
Pressure: 30.02"   Gusts: 29mph
Location:  39.995°N, 89.8499°W
Report Text: KSPI 281852Z 17018G25KT 10SM CLR 03/M01 A3002 RMK AO2 PK WND 17026/1842 SLP172 T00331011
Loading
Personal Weather Stations






























Interactive Weather Map New forecast layout! Learn more

10-Day Weather Forecast

Advertisements
Track Severe Weather on mobile